sensor_id;sensor_type;location;lat;lon;timestamp;P1;durP1;ratioP1;P2;durP2;ratioP2
39502;SDS011;26970;49.900;10.774;2023-03-01T00:01:07;23.60;;;12.18;;
39502;SDS011;26970;49.900;10.774;2023-03-01T00:03:38;25.63;;;11.55;;
39502;SDS011;26970;49.900;10.774;2023-03-01T00:06:04;22.40;;;12.27;;
39502;SDS011;26970;49.900;10.774;2023-03-01T00:08:30;24.52;;;12.82;;
39502;SDS011;26970;49.900;10.774;2023-03-01T00:11:05;22.65;;;12.20;;
39502;SDS011;26970;49.900;10.774;2023-03-01T00:13:42;25.52;;;12.85;;
39502;SDS011;26970;49.900;10.774;2023-03-01T00:16:10;24.70;;;12.63;;
39502;SDS011;26970;49.900;10.774;2023-03-01T00:18:40;23.43;;;11.87;;
39502;SDS011;26970;49.900;10.774;2023-03-01T00:21:06;25.67;;;11.00;;
39502;SDS011;26970;49.900;10.774;2023-03-01T00:23:35;27.48;;;14.13;;
39502;SDS011;26970;49.900;10.774;2023-03-01T00:26:01;27.95;;;13.40;;
39502;SDS011;26970;49.900;10.774;2023-03-01T00:28:27;25.05;;;12.02;;
39502;SDS011;26970;49.900;10.774;2023-03-01T00:30:53;21.95;;;13.13;;
39502;SDS011;26970;49.900;10.774;2023-03-01T00:33:18;28.65;;;13.52;;
39502;SDS011;26970;49.900;10.774;2023-03-01T00:35:44;25.23;;;12.95;;
39502;SDS011;26970;49.900;10.774;2023-03-01T00:38:10;32.67;;;14.77;;
39502;SDS011;26970;49.900;10.774;2023-03-01T00:40:36;27.25;;;13.77;;
39502;SDS011;26970;49.900;10.774;2023-03-01T00:43:02;23.88;;;12.18;;
39502;SDS011;26970;49.900;10.774;2023-03-01T00:45:28;28.10;;;12.93;;
39502;SDS011;26970;49.900;10.774;2023-03-01T00:47:55;24.48;;;11.60;;
39502;SDS011;26970;49.900;10.774;2023-03-01T00:50:22;24.58;;;11.57;;
39502;SDS011;26970;49.900;10.774;2023-03-01T00:52:51;26.48;;;11.55;;
39502;SDS011;26970;49.900;10.774;2023-03-01T00:55:18;26.58;;;12.82;;
39502;SDS011;26970;49.900;10.774;2023-03-01T00:57:44;27.50;;;12.95;;
39502;SDS011;26970;49.900;10.774;2023-03-01T01:00:10;24.33;;;12.23;;
39502;SDS011;26970;49.900;10.774;2023-03-01T01:02:36;24.30;;;11.82;;
39502;SDS011;26970;49.900;10.774;2023-03-01T01:05:03;23.63;;;12.50;;
39502;SDS011;26970;49.900;10.774;2023-03-01T01:07:29;29.38;;;12.60;;
39502;SDS011;26970;49.900;10.774;2023-03-01T01:09:54;27.08;;;13.35;;
39502;SDS011;26970;49.900;10.774;2023-03-01T01:12:20;29.60;;;13.77;;
39502;SDS011;26970;49.900;10.774;2023-03-01T01:14:46;29.50;;;15.77;;
39502;SDS011;26970;49.900;10.774;2023-03-01T01:17:12;28.25;;;14.20;;
39502;SDS011;26970;49.900;10.774;2023-03-01T01:19:38;33.85;;;14.13;;
39502;SDS011;26970;49.900;10.774;2023-03-01T01:22:03;31.05;;;13.75;;
39502;SDS011;26970;49.900;10.774;2023-03-01T01:24:29;31.33;;;15.18;;
39502;SDS011;26970;49.900;10.774;2023-03-01T01:26:55;28.63;;;14.45;;
39502;SDS011;26970;49.900;10.774;2023-03-01T01:29:21;36.13;;;14.63;;
39502;SDS011;26970;49.900;10.774;2023-03-01T01:31:47;41.50;;;16.65;;
39502;SDS011;26970;49.900;10.774;2023-03-01T01:34:14;42.50;;;15.60;;
39502;SDS011;26970;49.900;10.774;2023-03-01T01:36:41;34.38;;;15.07;;
39502;SDS011;26970;49.900;10.774;2023-03-01T01:39:07;32.83;;;16.02;;
39502;SDS011;26970;49.900;10.774;2023-03-01T01:41:37;41.70;;;16.95;;
39502;SDS011;26970;49.900;10.774;2023-03-01T01:44:15;36.95;;;15.63;;
39502;SDS011;26970;49.900;10.774;2023-03-01T01:46:47;32.22;;;13.75;;
39502;SDS011;26970;49.900;10.774;2023-03-01T01:49:19;24.23;;;12.88;;
39502;SDS011;26970;49.900;10.774;2023-03-01T01:51:49;24.48;;;12.23;;
39502;SDS011;26970;49.900;10.774;2023-03-01T01:54:27;27.10;;;13.00;;
39502;SDS011;26970;49.900;10.774;2023-03-01T01:57:02;27.05;;;13.13;;
39502;SDS011;26970;49.900;10.774;2023-03-01T01:59:32;28.25;;;13.00;;
39502;SDS011;26970;49.900;10.774;2023-03-01T02:01:59;29.42;;;13.80;;
39502;SDS011;26970;49.900;10.774;2023-03-01T02:04:28;25.90;;;11.93;;
39502;SDS011;26970;49.900;10.774;2023-03-01T02:06:57;29.00;;;13.27;;
39502;SDS011;26970;49.900;10.774;2023-03-01T02:09:37;29.40;;;13.68;;
39502;SDS011;26970;49.900;10.774;2023-03-01T02:12:03;34.03;;;15.25;;
39502;SDS011;26970;49.900;10.774;2023-03-01T02:14:29;31.35;;;14.38;;
39502;SDS011;26970;49.900;10.774;2023-03-01T02:16:55;28.45;;;13.23;;
39502;SDS011;26970;49.900;10.774;2023-03-01T02:27:29;25.90;;;12.40;;
39502;SDS011;26970;49.900;10.774;2023-03-01T02:30:03;26.15;;;13.30;;
39502;SDS011;26970;49.900;10.774;2023-03-01T02:32:32;18.70;;;8.32;;
39502;SDS011;26970;49.900;10.774;2023-03-01T02:34:59;27.27;;;12.25;;
39502;SDS011;26970;49.900;10.774;2023-03-01T02:37:25;17.33;;;9.75;;
39502;SDS011;26970;49.900;10.774;2023-03-01T02:40:02;29.52;;;13.65;;
39502;SDS011;26970;49.900;10.774;2023-03-01T02:42:33;25.25;;;12.18;;
39502;SDS011;26970;49.900;10.774;2023-03-01T02:45:02;23.38;;;11.25;;
39502;SDS011;26970;49.900;10.774;2023-03-01T02:47:28;23.92;;;11.43;;
39502;SDS011;26970;49.900;10.774;2023-03-01T02:49:54;20.58;;;10.57;;
39502;SDS011;26970;49.900;10.774;2023-03-01T02:52:26;20.88;;;10.10;;
39502;SDS011;26970;49.900;10.774;2023-03-01T02:55:14;23.30;;;11.32;;
39502;SDS011;26970;49.900;10.774;2023-03-01T02:57:41;21.55;;;11.80;;
39502;SDS011;26970;49.900;10.774;2023-03-01T03:00:10;19.73;;;10.32;;
39502;SDS011;26970;49.900;10.774;2023-03-01T03:02:44;16.25;;;9.02;;
39502;SDS011;26970;49.900;10.774;2023-03-01T03:05:11;23.20;;;12.05;;
39502;SDS011;26970;49.900;10.774;2023-03-01T03:10:45;22.73;;;11.77;;
39502;SDS011;26970;49.900;10.774;2023-03-01T03:13:12;23.15;;;11.93;;
39502;SDS011;26970;49.900;10.774;2023-03-01T03:15:39;23.58;;;11.45;;
39502;SDS011;26970;49.900;10.774;2023-03-01T03:18:07;22.38;;;11.75;;
39502;SDS011;26970;49.900;10.774;2023-03-01T03:20:35;22.80;;;11.30;;
39502;SDS011;26970;49.900;10.774;2023-03-01T03:23:02;25.10;;;13.18;;
39502;SDS011;26970;49.900;10.774;2023-03-01T03:25:29;26.73;;;13.25;;
39502;SDS011;26970;49.900;10.774;2023-03-01T03:27:55;25.27;;;12.95;;
39502;SDS011;26970;49.900;10.774;2023-03-01T03:30:26;26.08;;;13.18;;
39502;SDS011;26970;49.900;10.774;2023-03-01T03:32:55;24.48;;;11.63;;
39502;SDS011;26970;49.900;10.774;2023-03-01T03:35:29;23.27;;;12.20;;
39502;SDS011;26970;49.900;10.774;2023-03-01T03:37:59;23.55;;;12.32;;
39502;SDS011;26970;49.900;10.774;2023-03-01T03:40:27;23.30;;;11.13;;
39502;SDS011;26970;49.900;10.774;2023-03-01T03:43:07;28.00;;;12.68;;
39502;SDS011;26970;49.900;10.774;2023-03-01T03:45:37;26.35;;;11.32;;
39502;SDS011;26970;49.900;10.774;2023-03-01T03:48:04;25.90;;;13.20;;
39502;SDS011;26970;49.900;10.774;2023-03-01T03:50:31;25.50;;;12.52;;
39502;SDS011;26970;49.900;10.774;2023-03-01T03:52:59;24.52;;;12.05;;
39502;SDS011;26970;49.900;10.774;2023-03-01T03:55:27;28.00;;;12.85;;
39502;SDS011;26970;49.900;10.774;2023-03-01T03:57:56;21.77;;;12.55;;
39502;SDS011;26970;49.900;10.774;2023-03-01T04:00:22;28.50;;;13.95;;
39502;SDS011;26970;49.900;10.774;2023-03-01T04:02:49;24.00;;;12.68;;
39502;SDS011;26970;49.900;10.774;2023-03-01T04:05:16;24.25;;;11.77;;
39502;SDS011;26970;49.900;10.774;2023-03-01T04:07:44;25.27;;;12.55;;
39502;SDS011;26970;49.900;10.774;2023-03-01T04:10:16;22.67;;;11.88;;
39502;SDS011;26970;49.900;10.774;2023-03-01T04:12:43;22.27;;;11.75;;
39502;SDS011;26970;49.900;10.774;2023-03-01T04:15:09;22.70;;;11.80;;
39502;SDS011;26970;49.900;10.774;2023-03-01T04:17:39;25.00;;;12.52;;
39502;SDS011;26970;49.900;10.774;2023-03-01T04:20:06;22.73;;;11.05;;
39502;SDS011;26970;49.900;10.774;2023-03-01T04:22:42;24.92;;;13.00;;
39502;SDS011;26970;49.900;10.774;2023-03-01T04:25:12;28.65;;;13.90;;
39502;SDS011;26970;49.900;10.774;2023-03-01T04:27:39;25.10;;;10.20;;
39502;SDS011;26970;49.900;10.774;2023-03-01T04:30:05;22.25;;;11.35;;
39502;SDS011;26970;49.900;10.774;2023-03-01T04:32:31;24.25;;;12.38;;
39502;SDS011;26970;49.900;10.774;2023-03-01T04:34:57;23.23;;;11.02;;
39502;SDS011;26970;49.900;10.774;2023-03-01T04:37:23;25.20;;;12.88;;
39502;SDS011;26970;49.900;10.774;2023-03-01T04:39:50;25.67;;;12.77;;
39502;SDS011;26970;49.900;10.774;2023-03-01T04:42:15;23.25;;;11.57;;
39502;SDS011;26970;49.900;10.774;2023-03-01T04:44:41;25.40;;;13.00;;
39502;SDS011;26970;49.900;10.774;2023-03-01T04:47:08;23.77;;;12.13;;
39502;SDS011;26970;49.900;10.774;2023-03-01T04:49:33;28.13;;;13.77;;
39502;SDS011;26970;49.900;10.774;2023-03-01T04:51:59;28.75;;;13.48;;
39502;SDS011;26970;49.900;10.774;2023-03-01T04:54:36;26.00;;;13.10;;
39502;SDS011;26970;49.900;10.774;2023-03-01T04:57:02;19.65;;;9.75;;
39502;SDS011;26970;49.900;10.774;2023-03-01T04:59:28;24.65;;;11.13;;
39502;SDS011;26970;49.900;10.774;2023-03-01T05:01:54;25.67;;;12.98;;
39502;SDS011;26970;49.900;10.774;2023-03-01T05:04:21;22.85;;;11.90;;
39502;SDS011;26970;49.900;10.774;2023-03-01T05:06:47;20.92;;;11.07;;
39502;SDS011;26970;49.900;10.774;2023-03-01T05:09:12;27.80;;;13.60;;
39502;SDS011;26970;49.900;10.774;2023-03-01T05:11:38;21.75;;;10.75;;
39502;SDS011;26970;49.900;10.774;2023-03-01T05:14:07;24.38;;;12.18;;
39502;SDS011;26970;49.900;10.774;2023-03-01T05:16:34;26.40;;;10.98;;
39502;SDS011;26970;49.900;10.774;2023-03-01T05:19:01;21.10;;;11.73;;
39502;SDS011;26970;49.900;10.774;2023-03-01T05:21:36;18.23;;;9.52;;
39502;SDS011;26970;49.900;10.774;2023-03-01T05:24:22;28.83;;;12.00;;
39502;SDS011;26970;49.900;10.774;2023-03-01T05:26:48;24.98;;;13.57;;
39502;SDS011;26970;49.900;10.774;2023-03-01T05:29:13;29.35;;;13.07;;
39502;SDS011;26970;49.900;10.774;2023-03-01T05:31:39;23.88;;;13.18;;
39502;SDS011;26970;49.900;10.774;2023-03-01T05:34:05;29.10;;;14.35;;
39502;SDS011;26970;49.900;10.774;2023-03-01T05:36:31;28.17;;;12.25;;
39502;SDS011;26970;49.900;10.774;2023-03-01T05:38:57;29.98;;;12.95;;
39502;SDS011;26970;49.900;10.774;2023-03-01T05:41:22;22.83;;;10.98;;
39502;SDS011;26970;49.900;10.774;2023-03-01T05:43:48;23.98;;;12.20;;
39502;SDS011;26970;49.900;10.774;2023-03-01T05:46:14;20.02;;;10.75;;
39502;SDS011;26970;49.900;10.774;2023-03-01T05:48:40;25.92;;;12.20;;
39502;SDS011;26970;49.900;10.774;2023-03-01T05:51:05;25.02;;;11.75;;
39502;SDS011;26970;49.900;10.774;2023-03-01T05:53:31;22.90;;;11.68;;
39502;SDS011;26970;49.900;10.774;2023-03-01T05:55:57;18.70;;;9.23;;
39502;SDS011;26970;49.900;10.774;2023-03-01T05:58:23;25.13;;;12.02;;
39502;SDS011;26970;49.900;10.774;2023-03-01T06:00:49;23.08;;;11.18;;
39502;SDS011;26970;49.900;10.774;2023-03-01T06:03:16;24.73;;;12.15;;
39502;SDS011;26970;49.900;10.774;2023-03-01T06:05:42;17.30;;;7.30;;
39502;SDS011;26970;49.900;10.774;2023-03-01T06:08:09;22.13;;;11.50;;
39502;SDS011;26970;49.900;10.774;2023-03-01T06:10:35;20.08;;;9.50;;
39502;SDS011;26970;49.900;10.774;2023-03-01T06:13:02;28.88;;;14.02;;
39502;SDS011;26970;49.900;10.774;2023-03-01T06:15:28;30.30;;;13.55;;
39502;SDS011;26970;49.900;10.774;2023-03-01T06:17:54;31.42;;;14.63;;
39502;SDS011;26970;49.900;10.774;2023-03-01T06:20:22;24.17;;;12.25;;
39502;SDS011;26970;49.900;10.774;2023-03-01T06:22:49;29.67;;;12.95;;
39502;SDS011;26970;49.900;10.774;2023-03-01T06:25:16;27.33;;;12.50;;
39502;SDS011;26970;49.900;10.774;2023-03-01T06:27:43;20.15;;;9.85;;
39502;SDS011;26970;49.900;10.774;2023-03-01T06:30:10;13.00;;;6.32;;
39502;SDS011;26970;49.900;10.774;2023-03-01T06:32:38;24.55;;;12.57;;
39502;SDS011;26970;49.900;10.774;2023-03-01T06:35:07;23.15;;;11.63;;
39502;SDS011;26970;49.900;10.774;2023-03-01T06:37:37;23.38;;;11.55;;
39502;SDS011;26970;49.900;10.774;2023-03-01T06:40:04;19.25;;;9.50;;
39502;SDS011;26970;49.900;10.774;2023-03-01T06:42:34;30.25;;;13.15;;
39502;SDS011;26970;49.900;10.774;2023-03-01T06:45:00;19.65;;;8.82;;
39502;SDS011;26970;49.900;10.774;2023-03-01T06:47:26;11.75;;;7.03;;
39502;SDS011;26970;49.900;10.774;2023-03-01T06:49:51;13.75;;;7.18;;
39502;SDS011;26970;49.900;10.774;2023-03-01T06:52:17;25.27;;;12.80;;
39502;SDS011;26970;49.900;10.774;2023-03-01T06:54:43;26.92;;;13.70;;
39502;SDS011;26970;49.900;10.774;2023-03-01T06:57:08;26.42;;;13.90;;
39502;SDS011;26970;49.900;10.774;2023-03-01T06:59:34;36.38;;;14.00;;
39502;SDS011;26970;49.900;10.774;2023-03-01T07:01:59;29.77;;;15.27;;
39502;SDS011;26970;49.900;10.774;2023-03-01T07:04:25;30.73;;;15.32;;
39502;SDS011;26970;49.900;10.774;2023-03-01T07:06:53;29.02;;;15.45;;
39502;SDS011;26970;49.900;10.774;2023-03-01T07:09:20;29.38;;;14.23;;
39502;SDS011;26970;49.900;10.774;2023-03-01T07:11:49;29.25;;;15.35;;
39502;SDS011;26970;49.900;10.774;2023-03-01T07:14:15;27.85;;;14.27;;
39502;SDS011;26970;49.900;10.774;2023-03-01T07:16:41;29.73;;;15.15;;
39502;SDS011;26970;49.900;10.774;2023-03-01T07:19:07;28.60;;;14.55;;
39502;SDS011;26970;49.900;10.774;2023-03-01T07:21:33;22.63;;;11.68;;
39502;SDS011;26970;49.900;10.774;2023-03-01T07:23:59;23.55;;;11.43;;
39502;SDS011;26970;49.900;10.774;2023-03-01T07:26:24;22.95;;;11.75;;
39502;SDS011;26970;49.900;10.774;2023-03-01T07:28:50;29.88;;;14.15;;
39502;SDS011;26970;49.900;10.774;2023-03-01T07:31:16;24.25;;;11.43;;
39502;SDS011;26970;49.900;10.774;2023-03-01T07:33:42;18.58;;;10.45;;
39502;SDS011;26970;49.900;10.774;2023-03-01T07:36:08;16.83;;;8.55;;
39502;SDS011;26970;49.900;10.774;2023-03-01T07:38:34;17.75;;;9.75;;
39502;SDS011;26970;49.900;10.774;2023-03-01T07:41:01;26.52;;;13.73;;
39502;SDS011;26970;49.900;10.774;2023-03-01T07:43:30;29.05;;;14.88;;
39502;SDS011;26970;49.900;10.774;2023-03-01T07:46:00;36.80;;;14.23;;
39502;SDS011;26970;49.900;10.774;2023-03-01T07:48:26;28.50;;;14.52;;
39502;SDS011;26970;49.900;10.774;2023-03-01T07:50:53;26.00;;;13.05;;
39502;SDS011;26970;49.900;10.774;2023-03-01T07:53:18;24.77;;;11.38;;
39502;SDS011;26970;49.900;10.774;2023-03-01T07:55:44;26.58;;;12.00;;
39502;SDS011;26970;49.900;10.774;2023-03-01T07:58:10;30.20;;;14.40;;
39502;SDS011;26970;49.900;10.774;2023-03-01T08:00:36;23.67;;;12.02;;
39502;SDS011;26970;49.900;10.774;2023-03-01T08:03:02;29.05;;;13.02;;
39502;SDS011;26970;49.900;10.774;2023-03-01T08:05:28;10.65;;;5.38;;
39502;SDS011;26970;49.900;10.774;2023-03-01T08:07:54;22.98;;;12.43;;
39502;SDS011;26970;49.900;10.774;2023-03-01T08:10:20;23.02;;;9.80;;
39502;SDS011;26970;49.900;10.774;2023-03-01T08:12:46;26.20;;;14.20;;
39502;SDS011;26970;49.900;10.774;2023-03-01T08:15:12;15.05;;;8.40;;
39502;SDS011;26970;49.900;10.774;2023-03-01T08:17:38;24.98;;;12.23;;
39502;SDS011;26970;49.900;10.774;2023-03-01T08:20:04;24.80;;;11.45;;
39502;SDS011;26970;49.900;10.774;2023-03-01T08:22:31;22.88;;;10.68;;
39502;SDS011;26970;49.900;10.774;2023-03-01T08:24:57;28.48;;;12.10;;
39502;SDS011;26970;49.900;10.774;2023-03-01T08:27:22;15.73;;;7.97;;
39502;SDS011;26970;49.900;10.774;2023-03-01T08:29:48;24.38;;;13.60;;
39502;SDS011;26970;49.900;10.774;2023-03-01T08:32:14;22.30;;;10.73;;
39502;SDS011;26970;49.900;10.774;2023-03-01T08:34:40;25.38;;;13.52;;
39502;SDS011;26970;49.900;10.774;2023-03-01T08:37:06;19.40;;;10.43;;
39502;SDS011;26970;49.900;10.774;2023-03-01T08:39:31;24.25;;;12.07;;
39502;SDS011;26970;49.900;10.774;2023-03-01T08:41:57;29.60;;;13.52;;
39502;SDS011;26970;49.900;10.774;2023-03-01T08:44:22;21.13;;;10.35;;
39502;SDS011;26970;49.900;10.774;2023-03-01T08:46:48;29.73;;;14.43;;
39502;SDS011;26970;49.900;10.774;2023-03-01T08:49:16;18.23;;;10.05;;
39502;SDS011;26970;49.900;10.774;2023-03-01T08:51:43;23.60;;;12.30;;
39502;SDS011;26970;49.900;10.774;2023-03-01T08:54:11;27.15;;;13.70;;
39502;SDS011;26970;49.900;10.774;2023-03-01T08:56:39;15.50;;;8.77;;
39502;SDS011;26970;49.900;10.774;2023-03-01T08:59:05;12.82;;;6.60;;
39502;SDS011;26970;49.900;10.774;2023-03-01T09:01:31;19.35;;;10.60;;
39502;SDS011;26970;49.900;10.774;2023-03-01T09:03:57;23.55;;;12.45;;
39502;SDS011;26970;49.900;10.774;2023-03-01T09:06:23;24.58;;;14.43;;
39502;SDS011;26970;49.900;10.774;2023-03-01T09:08:49;26.77;;;13.50;;
39502;SDS011;26970;49.900;10.774;2023-03-01T09:11:16;23.98;;;12.70;;
39502;SDS011;26970;49.900;10.774;2023-03-01T09:13:45;30.33;;;15.13;;
39502;SDS011;26970;49.900;10.774;2023-03-01T09:16:12;20.20;;;11.20;;
39502;SDS011;26970;49.900;10.774;2023-03-01T09:18:39;25.90;;;12.57;;
39502;SDS011;26970;49.900;10.774;2023-03-01T09:21:06;25.30;;;12.70;;
39502;SDS011;26970;49.900;10.774;2023-03-01T09:23:43;24.23;;;14.50;;
39502;SDS011;26970;49.900;10.774;2023-03-01T09:26:10;23.05;;;13.32;;
39502;SDS011;26970;49.900;10.774;2023-03-01T09:28:38;28.70;;;14.93;;
39502;SDS011;26970;49.900;10.774;2023-03-01T09:31:05;11.15;;;6.35;;
39502;SDS011;26970;49.900;10.774;2023-03-01T09:33:32;27.17;;;11.95;;
39502;SDS011;26970;49.900;10.774;2023-03-01T09:35:58;26.33;;;13.27;;
39502;SDS011;26970;49.900;10.774;2023-03-01T09:38:25;27.02;;;13.88;;
39502;SDS011;26970;49.900;10.774;2023-03-01T09:40:51;19.33;;;8.90;;
39502;SDS011;26970;49.900;10.774;2023-03-01T09:46:05;25.25;;;12.50;;
39502;SDS011;26970;49.900;10.774;2023-03-01T09:48:40;21.55;;;10.77;;
39502;SDS011;26970;49.900;10.774;2023-03-01T09:51:29;21.35;;;10.50;;
39502;SDS011;26970;49.900;10.774;2023-03-01T09:54:03;15.55;;;7.38;;
39502;SDS011;26970;49.900;10.774;2023-03-01T09:56:34;24.00;;;12.90;;
39502;SDS011;26970;49.900;10.774;2023-03-01T10:09:39;21.77;;;9.07;;
39502;SDS011;26970;49.900;10.774;2023-03-01T10:12:13;21.20;;;11.88;;
39502;SDS011;26970;49.900;10.774;2023-03-01T10:15:09;26.92;;;13.73;;
39502;SDS011;26970;49.900;10.774;2023-03-01T10:17:47;17.50;;;9.23;;
39502;SDS011;26970;49.900;10.774;2023-03-01T10:20:24;24.80;;;12.43;;
39502;SDS011;26970;49.900;10.774;2023-03-01T10:22:51;20.27;;;10.75;;
39502;SDS011;26970;49.900;10.774;2023-03-01T10:27:54;25.55;;;13.10;;
39502;SDS011;26970;49.900;10.774;2023-03-01T10:30:30;19.42;;;9.70;;
39502;SDS011;26970;49.900;10.774;2023-03-01T10:33:13;26.65;;;13.80;;
39502;SDS011;26970;49.900;10.774;2023-03-01T10:35:52;23.63;;;12.13;;
39502;SDS011;26970;49.900;10.774;2023-03-01T10:38:19;23.25;;;10.68;;
39502;SDS011;26970;49.900;10.774;2023-03-01T10:40:53;14.90;;;8.07;;
39502;SDS011;26970;49.900;10.774;2023-03-01T10:43:19;24.77;;;11.98;;
39502;SDS011;26970;49.900;10.774;2023-03-01T10:45:46;23.60;;;12.82;;
39502;SDS011;26970;49.900;10.774;2023-03-01T10:48:13;20.67;;;12.05;;
39502;SDS011;26970;49.900;10.774;2023-03-01T10:50:43;20.45;;;11.18;;
39502;SDS011;26970;49.900;10.774;2023-03-01T10:53:29;24.25;;;12.07;;
39502;SDS011;26970;49.900;10.774;2023-03-01T10:56:07;16.52;;;7.10;;
39502;SDS011;26970;49.900;10.774;2023-03-01T10:58:35;16.38;;;7.63;;
39502;SDS011;26970;49.900;10.774;2023-03-01T11:01:23;19.45;;;11.05;;
39502;SDS011;26970;49.900;10.774;2023-03-01T11:04:09;15.93;;;8.63;;
39502;SDS011;26970;49.900;10.774;2023-03-01T11:06:38;20.20;;;7.95;;
39502;SDS011;26970;49.900;10.774;2023-03-01T11:09:18;18.88;;;8.07;;
39502;SDS011;26970;49.900;10.774;2023-03-01T11:11:45;25.13;;;11.77;;
39502;SDS011;26970;49.900;10.774;2023-03-01T11:14:17;19.77;;;11.25;;
39502;SDS011;26970;49.900;10.774;2023-03-01T11:16:48;22.85;;;10.50;;
39502;SDS011;26970;49.900;10.774;2023-03-01T11:19:23;21.95;;;10.00;;
39502;SDS011;26970;49.900;10.774;2023-03-01T11:24:15;25.38;;;12.05;;
39502;SDS011;26970;49.900;10.774;2023-03-01T11:26:44;21.75;;;12.80;;
39502;SDS011;26970;49.900;10.774;2023-03-01T11:29:18;18.85;;;9.63;;
39502;SDS011;26970;49.900;10.774;2023-03-01T11:31:53;23.20;;;12.23;;
39502;SDS011;26970;49.900;10.774;2023-03-01T11:37:15;24.15;;;13.07;;
39502;SDS011;26970;49.900;10.774;2023-03-01T11:39:54;21.95;;;12.18;;
39502;SDS011;26970;49.900;10.774;2023-03-01T11:45:02;14.98;;;8.35;;
39502;SDS011;26970;49.900;10.774;2023-03-01T11:53:20;25.45;;;12.52;;
39502;SDS011;26970;49.900;10.774;2023-03-01T11:56:07;18.80;;;10.73;;
39502;SDS011;26970;49.900;10.774;2023-03-01T12:10:23;20.73;;;11.68;;
39502;SDS011;26970;49.900;10.774;2023-03-01T12:13:12;19.92;;;9.60;;
39502;SDS011;26970;49.900;10.774;2023-03-01T12:18:49;21.10;;;11.55;;
39502;SDS011;26970;49.900;10.774;2023-03-01T12:21:23;19.38;;;10.80;;
39502;SDS011;26970;49.900;10.774;2023-03-01T12:26:55;18.75;;;10.02;;
39502;SDS011;26970;49.900;10.774;2023-03-01T12:29:47;27.35;;;12.70;;
39502;SDS011;26970;49.900;10.774;2023-03-01T12:35:45;21.20;;;10.95;;
39502;SDS011;26970;49.900;10.774;2023-03-01T12:38:37;21.05;;;10.85;;
39502;SDS011;26970;49.900;10.774;2023-03-01T12:44:23;13.32;;;7.05;;
39502;SDS011;26970;49.900;10.774;2023-03-01T12:49:53;14.15;;;7.72;;
39502;SDS011;26970;49.900;10.774;2023-03-01T12:55:14;27.35;;;10.13;;
39502;SDS011;26970;49.900;10.774;2023-03-01T12:58:32;17.73;;;10.18;;
39502;SDS011;26970;49.900;10.774;2023-03-01T13:08:39;20.80;;;10.80;;
39502;SDS011;26970;49.900;10.774;2023-03-01T13:11:25;20.58;;;12.07;;
39502;SDS011;26970;49.900;10.774;2023-03-01T13:13:51;16.50;;;8.90;;
39502;SDS011;26970;49.900;10.774;2023-03-01T13:16:38;15.48;;;8.75;;
39502;SDS011;26970;49.900;10.774;2023-03-01T13:19:17;17.95;;;10.90;;
39502;SDS011;26970;49.900;10.774;2023-03-01T13:21:44;20.33;;;11.27;;
39502;SDS011;26970;49.900;10.774;2023-03-01T13:24:24;10.90;;;6.60;;
39502;SDS011;26970;49.900;10.774;2023-03-01T13:29:31;14.88;;;7.80;;
39502;SDS011;26970;49.900;10.774;2023-03-01T13:32:25;16.40;;;9.57;;
39502;SDS011;26970;49.900;10.774;2023-03-01T13:35:03;20.30;;;10.93;;
39502;SDS011;26970;49.900;10.774;2023-03-01T13:37:49;16.63;;;8.32;;
39502;SDS011;26970;49.900;10.774;2023-03-01T13:42:51;13.45;;;8.50;;
39502;SDS011;26970;49.900;10.774;2023-03-01T13:45:39;14.65;;;9.18;;
39502;SDS011;26970;49.900;10.774;2023-03-01T13:48:11;16.15;;;8.55;;
39502;SDS011;26970;49.900;10.774;2023-03-01T13:50:48;12.98;;;8.10;;
39502;SDS011;26970;49.900;10.774;2023-03-01T13:53:18;15.68;;;9.82;;
39502;SDS011;26970;49.900;10.774;2023-03-01T13:55:48;16.20;;;9.90;;
39502;SDS011;26970;49.900;10.774;2023-03-01T14:00:42;19.73;;;7.45;;
39502;SDS011;26970;49.900;10.774;2023-03-01T14:03:19;15.52;;;8.13;;
39502;SDS011;26970;49.900;10.774;2023-03-01T14:06:02;14.88;;;8.55;;
39502;SDS011;26970;49.900;10.774;2023-03-01T14:08:33;19.60;;;9.45;;
39502;SDS011;26970;49.900;10.774;2023-03-01T14:13:48;16.35;;;9.18;;
39502;SDS011;26970;49.900;10.774;2023-03-01T14:19:15;17.17;;;9.18;;
39502;SDS011;26970;49.900;10.774;2023-03-01T14:21:46;14.25;;;7.72;;
39502;SDS011;26970;49.900;10.774;2023-03-01T14:24:20;9.68;;;6.72;;
39502;SDS011;26970;49.900;10.774;2023-03-01T14:26:47;14.77;;;8.32;;
39502;SDS011;26970;49.900;10.774;2023-03-01T14:29:28;16.30;;;7.93;;
39502;SDS011;26970;49.900;10.774;2023-03-01T14:35:03;14.55;;;8.35;;
39502;SDS011;26970;49.900;10.774;2023-03-01T14:37:47;11.00;;;5.97;;
39502;SDS011;26970;49.900;10.774;2023-03-01T14:40:22;14.02;;;8.27;;
39502;SDS011;26970;49.900;10.774;2023-03-01T14:42:53;8.95;;;5.22;;
39502;SDS011;26970;49.900;10.774;2023-03-01T14:45:22;17.95;;;8.55;;
39502;SDS011;26970;49.900;10.774;2023-03-01T14:47:51;13.32;;;7.80;;
39502;SDS011;26970;49.900;10.774;2023-03-01T14:52:44;12.07;;;6.07;;
39502;SDS011;26970;49.900;10.774;2023-03-01T14:55:19;12.85;;;6.93;;
39502;SDS011;26970;49.900;10.774;2023-03-01T14:57:53;9.00;;;5.13;;
39502;SDS011;26970;49.900;10.774;2023-03-01T15:02:47;16.48;;;7.50;;
39502;SDS011;26970;49.900;10.774;2023-03-01T15:05:15;12.40;;;7.38;;
39502;SDS011;26970;49.900;10.774;2023-03-01T15:07:50;13.05;;;8.20;;
39502;SDS011;26970;49.900;10.774;2023-03-01T15:10:20;22.38;;;8.07;;
39502;SDS011;26970;49.900;10.774;2023-03-01T15:12:48;14.50;;;7.50;;
39502;SDS011;26970;49.900;10.774;2023-03-01T15:15:31;13.57;;;6.72;;
39502;SDS011;26970;49.900;10.774;2023-03-01T15:17:59;13.80;;;7.07;;
39502;SDS011;26970;49.900;10.774;2023-03-01T15:20:28;14.40;;;7.63;;
39502;SDS011;26970;49.900;10.774;2023-03-01T15:22:56;8.85;;;5.70;;
39502;SDS011;26970;49.900;10.774;2023-03-01T15:25:23;14.07;;;7.75;;
39502;SDS011;26970;49.900;10.774;2023-03-01T15:27:51;16.40;;;8.10;;
39502;SDS011;26970;49.900;10.774;2023-03-01T15:30:27;14.85;;;7.97;;
39502;SDS011;26970;49.900;10.774;2023-03-01T15:35:55;14.18;;;8.55;;
39502;SDS011;26970;49.900;10.774;2023-03-01T15:41:00;16.08;;;7.97;;
39502;SDS011;26970;49.900;10.774;2023-03-01T15:43:44;20.20;;;10.18;;
39502;SDS011;26970;49.900;10.774;2023-03-01T15:46:18;18.10;;;9.90;;
39502;SDS011;26970;49.900;10.774;2023-03-01T15:48:48;21.85;;;10.02;;
39502;SDS011;26970;49.900;10.774;2023-03-01T15:51:17;18.67;;;11.07;;
39502;SDS011;26970;49.900;10.774;2023-03-01T15:53:48;16.42;;;9.73;;
39502;SDS011;26970;49.900;10.774;2023-03-01T15:56:16;22.15;;;10.80;;
39502;SDS011;26970;49.900;10.774;2023-03-01T15:58:42;22.17;;;12.20;;
39502;SDS011;26970;49.900;10.774;2023-03-01T16:01:12;18.88;;;10.90;;
39502;SDS011;26970;49.900;10.774;2023-03-01T16:03:42;20.77;;;10.75;;
39502;SDS011;26970;49.900;10.774;2023-03-01T16:06:09;16.30;;;8.55;;
39502;SDS011;26970;49.900;10.774;2023-03-01T16:08:35;20.33;;;11.10;;
39502;SDS011;26970;49.900;10.774;2023-03-01T16:11:02;20.30;;;10.85;;